createdAt,value
2024-02-05T00:01:28.616Z,11.83
2024-02-05T00:04:50.203Z,11.94
2024-02-05T00:08:13.279Z,11.88
2024-02-05T00:11:29.125Z,11.88
2024-02-05T00:14:51.348Z,11.90
2024-02-05T00:18:12.842Z,11.88
2024-02-05T00:21:33.129Z,11.77
2024-02-05T00:24:46.797Z,11.95
2024-02-05T00:27:59.879Z,11.81
2024-02-05T00:31:04.827Z,11.73
2024-02-05T00:34:21.605Z,11.81
2024-02-05T00:37:39.832Z,11.79
2024-02-05T00:40:54.371Z,11.83
2024-02-05T00:44:14.280Z,11.77
2024-02-05T00:47:38.173Z,11.71
2024-02-05T00:50:48.707Z,11.81
2024-02-05T00:54:12.360Z,11.76
2024-02-05T00:57:51.814Z,11.66
2024-02-05T01:01:06.582Z,11.59
2024-02-05T01:04:30.018Z,11.68
2024-02-05T01:07:45.731Z,11.56
2024-02-05T01:10:56.079Z,11.49
2024-02-05T01:14:05.118Z,11.53
2024-02-05T01:17:29.983Z,11.53
2024-02-05T01:20:49.738Z,11.58
2024-02-05T01:24:07.096Z,11.48
2024-02-05T01:27:47.120Z,11.37
2024-02-05T01:31:07.087Z,11.46
2024-02-05T01:34:28.125Z,11.41
2024-02-05T01:37:33.042Z,11.43
2024-02-05T01:40:42.440Z,11.45
2024-02-05T01:43:53.847Z,11.55
2024-02-05T01:46:58.619Z,11.38
2024-02-05T01:50:10.423Z,11.46
2024-02-05T01:53:30.310Z,11.48
2024-02-05T01:56:50.908Z,11.61
2024-02-05T01:59:55.697Z,11.65
2024-02-05T02:03:04.329Z,11.61
2024-02-05T02:06:14.597Z,11.80
2024-02-05T02:09:39.673Z,11.67
2024-02-05T02:12:49.713Z,11.69
2024-02-05T02:16:09.575Z,11.70
2024-02-05T02:19:51.477Z,11.73
2024-02-05T02:23:13.506Z,11.76
2024-02-05T02:26:25.346Z,11.81
2024-02-05T02:29:34.699Z,11.92
2024-02-05T02:33:32.396Z,12.06
2024-02-05T02:36:45.799Z,12.16
2024-02-05T02:40:12.168Z,12.18
2024-02-05T02:43:22.284Z,12.32
2024-02-05T02:46:42.787Z,12.23
2024-02-05T02:49:54.801Z,12.31
2024-02-05T02:53:01.856Z,12.31
2024-02-05T02:56:07.686Z,12.36
2024-02-05T02:59:19.479Z,12.29
2024-02-05T03:02:36.537Z,12.21
2024-02-05T03:05:55.784Z,12.34
2024-02-05T03:09:15.139Z,12.33
2024-02-05T03:12:41.769Z,12.36
2024-02-05T03:16:07.056Z,12.32
2024-02-05T03:19:32.530Z,12.40
2024-02-05T03:22:58.496Z,12.29
2024-02-05T03:26:10.585Z,12.47
2024-02-05T03:29:27.974Z,12.51
2024-02-05T03:32:36.241Z,12.52
2024-02-05T03:35:49.501Z,12.54
2024-02-05T03:38:55.155Z,12.39
2024-02-05T03:42:03.074Z,12.22
2024-02-05T03:45:28.197Z,12.46
2024-02-05T03:49:01.147Z,12.46
2024-02-05T03:52:09.183Z,12.30
2024-02-05T03:55:27.436Z,12.32
2024-02-05T03:58:49.081Z,12.07
2024-02-05T04:01:59.142Z,12.14
2024-02-05T04:05:14.199Z,12.14
2024-02-05T04:08:19.169Z,12.03
2024-02-05T04:11:37.078Z,11.93
2024-02-05T04:15:00.524Z,11.85
2024-02-05T04:22:15.028Z,12.04
2024-02-05T04:25:32.080Z,12.01
2024-02-05T04:28:37.710Z,12.00
2024-02-05T04:31:42.674Z,12.00
2024-02-05T04:34:59.624Z,11.93
2024-02-05T04:38:21.968Z,12.09
2024-02-05T04:41:43.800Z,12.06
2024-02-05T04:44:57.880Z,12.22
2024-02-05T04:48:22.886Z,12.10
2024-02-05T04:51:36.554Z,12.08
2024-02-05T04:55:00.310Z,12.04
2024-02-05T04:58:16.963Z,11.96
2024-02-05T05:01:38.750Z,11.89
2024-02-05T05:05:00.906Z,11.77
2024-02-05T05:08:17.894Z,11.88
2024-02-05T05:11:39.914Z,11.87
2024-02-05T05:15:03.194Z,11.97
2024-02-05T05:18:30.249Z,12.01
2024-02-05T05:21:39.468Z,12.05
2024-02-05T05:25:01.166Z,12.08
2024-02-05T05:28:12.489Z,12.12
2024-02-05T05:31:31.609Z,12.23
2024-02-05T05:34:51.477Z,12.26
2024-02-05T05:38:10.028Z,12.37
2024-02-05T05:41:17.698Z,12.41
2024-02-05T05:44:28.397Z,12.34
2024-02-05T05:47:55.897Z,12.44
2024-02-05T05:51:10.418Z,12.50
2024-02-05T05:54:31.604Z,12.44
2024-02-05T05:57:58.778Z,12.43
2024-02-05T06:01:16.092Z,12.46
2024-02-05T06:04:36.625Z,12.56
2024-02-05T06:07:56.826Z,12.67
2024-02-05T06:11:17.362Z,12.66
2024-02-05T06:14:35.696Z,12.65
2024-02-05T06:18:00.960Z,12.78
2024-02-05T06:21:12.746Z,12.78
2024-02-05T06:24:38.430Z,12.87
2024-02-05T06:27:55.538Z,12.89
2024-02-05T06:31:02.153Z,12.87
2024-02-05T06:34:13.874Z,12.94
2024-02-05T06:37:38.369Z,12.85
2024-02-05T06:41:11.688Z,12.94
2024-02-05T06:44:45.674Z,12.93
2024-02-05T06:48:51.814Z,12.99
2024-02-05T06:52:34.715Z,13.03
2024-02-05T06:55:56.176Z,12.99
2024-02-05T06:59:18.509Z,13.05
2024-02-05T07:02:47.794Z,13.06
2024-02-05T07:06:20.015Z,13.08
2024-02-05T07:09:51.764Z,13.09
2024-02-05T07:13:13.650Z,13.06
2024-02-05T07:16:32.816Z,13.10
2024-02-05T07:19:56.284Z,13.04
2024-02-05T07:23:33.124Z,13.15
2024-02-05T07:27:05.192Z,13.12
2024-02-05T07:30:32.341Z,13.13
2024-02-05T07:33:45.359Z,13.18
2024-02-05T07:37:05.729Z,13.19
2024-02-05T07:41:09.981Z,13.23
2024-02-05T07:44:26.903Z,13.21
2024-02-05T07:47:55.816Z,13.24
2024-02-05T07:51:28.527Z,13.17
2024-02-05T07:54:57.252Z,13.26
2024-02-05T07:58:36.535Z,13.37
2024-02-05T08:02:15.963Z,13.20
2024-02-05T08:05:32.332Z,13.35
2024-02-05T08:08:51.387Z,13.35
2024-02-05T08:12:01.062Z,13.34
2024-02-05T08:15:17.983Z,13.29
2024-02-05T08:18:28.389Z,13.28
2024-02-05T08:21:48.967Z,13.28
2024-02-05T08:25:19.883Z,13.34
2024-02-05T08:28:47.876Z,13.18
2024-02-05T08:32:01.480Z,13.35
2024-02-05T08:35:13.138Z,13.27
2024-02-05T08:38:27.386Z,13.48
2024-02-05T08:41:39.684Z,13.28
2024-02-05T08:45:05.148Z,13.36
2024-02-05T08:48:29.667Z,13.53
2024-02-05T08:51:40.713Z,13.39
2024-02-05T08:54:53.776Z,13.41
2024-02-05T08:58:15.630Z,13.37
2024-02-05T09:01:30.519Z,13.18
2024-02-05T09:04:42.372Z,13.33
2024-02-05T09:07:56.764Z,13.33
2024-02-05T09:11:14.953Z,13.35
2024-02-05T09:14:25.150Z,13.54
2024-02-05T09:17:47.953Z,13.52
2024-02-05T09:20:57.598Z,13.43
2024-02-05T09:24:15.607Z,13.49
2024-02-05T09:27:37.600Z,13.45
2024-02-05T09:30:58.754Z,13.58
2024-02-05T09:34:18.749Z,13.49
2024-02-05T09:37:34.558Z,13.64
2024-02-05T09:41:04.788Z,13.42
2024-02-05T09:44:37.267Z,13.72
2024-02-05T09:47:49.801Z,13.65
2024-02-05T09:51:12.627Z,13.70
2024-02-05T09:54:24.963Z,13.70
2024-02-05T09:57:38.480Z,13.74
2024-02-05T10:00:50.513Z,13.98
2024-02-05T10:04:06.069Z,14.23
2024-02-05T10:07:34.518Z,14.28
2024-02-05T10:11:06.849Z,14.22
2024-02-05T10:14:35.846Z,14.06
2024-02-05T10:17:49.416Z,14.01
2024-02-05T10:21:16.780Z,13.99
2024-02-05T10:24:27.749Z,14.14
2024-02-05T10:27:38.433Z,14.46
2024-02-05T10:30:49.659Z,14.34
2024-02-05T10:34:19.706Z,14.34
2024-02-05T10:37:54.458Z,14.56
2024-02-05T10:41:03.005Z,14.45
2024-02-05T10:44:49.986Z,14.49
2024-02-05T10:48:19.535Z,14.59
2024-02-05T10:51:33.113Z,14.38
2024-02-05T10:55:01.710Z,14.69
2024-02-05T10:58:33.038Z,14.65
2024-02-05T11:01:50.065Z,14.79
2024-02-05T11:05:05.077Z,14.58
2024-02-05T11:08:18.914Z,14.77
2024-02-05T11:11:33.769Z,14.83
2024-02-05T11:15:03.381Z,14.62
2024-02-05T11:18:40.019Z,14.42
2024-02-05T11:22:07.485Z,14.36
2024-02-05T11:25:45.712Z,14.14
2024-02-05T11:29:08.418Z,14.23
2024-02-05T11:32:16.018Z,14.20
2024-02-05T11:35:33.242Z,14.26
2024-02-05T11:38:52.658Z,14.20
2024-02-05T11:42:12.109Z,14.42
2024-02-05T11:45:37.626Z,14.52
2024-02-05T11:49:21.435Z,14.45
2024-02-05T11:52:41.983Z,14.57
2024-02-05T11:56:06.309Z,14.63
2024-02-05T11:59:17.534Z,14.49
2024-02-05T12:02:44.028Z,14.61
2024-02-05T12:06:07.569Z,14.82
2024-02-05T12:09:23.417Z,14.96
2024-02-05T12:12:34.165Z,14.81
2024-02-05T12:16:00.436Z,14.83
2024-02-05T12:19:38.276Z,14.93
2024-02-05T12:22:53.805Z,14.98
2024-02-05T12:26:13.922Z,14.87
2024-02-05T12:29:41.998Z,14.89
2024-02-05T12:33:11.369Z,15.30
2024-02-05T12:36:38.276Z,15.30
2024-02-05T12:39:59.145Z,14.99
2024-02-05T12:43:10.004Z,14.85
2024-02-05T12:46:36.382Z,15.16
2024-02-05T12:50:09.466Z,14.92
2024-02-05T12:54:01.761Z,15.00
2024-02-05T12:57:13.293Z,15.04
2024-02-05T13:00:40.405Z,14.94
2024-02-05T13:04:02.304Z,14.83
2024-02-05T13:07:34.658Z,14.85
2024-02-05T13:11:15.037Z,15.02
2024-02-05T13:14:45.716Z,14.82
2024-02-05T13:18:16.963Z,14.92
2024-02-05T13:21:46.960Z,14.95
2024-02-05T13:25:07.115Z,14.90
2024-02-05T13:28:18.460Z,14.93
2024-02-05T13:31:36.363Z,14.72
2024-02-05T13:34:45.585Z,14.80
2024-02-05T13:38:05.975Z,14.80
2024-02-05T13:41:29.716Z,14.92
2024-02-05T13:44:41.665Z,14.87
2024-02-05T13:47:54.640Z,14.56
2024-02-05T13:51:08.120Z,14.61
2024-02-05T13:54:32.960Z,14.69
2024-02-05T13:58:08.699Z,14.64
2024-02-05T14:01:38.719Z,14.65
2024-02-05T14:04:52.611Z,14.62
2024-02-05T14:08:00.021Z,14.44
2024-02-05T14:11:27.846Z,14.56
2024-02-05T14:14:42.471Z,14.48
2024-02-05T14:17:51.865Z,14.48
2024-02-05T14:21:11.580Z,14.48
2024-02-05T14:24:35.748Z,14.35
2024-02-05T14:28:05.002Z,14.30
2024-02-05T14:31:16.405Z,14.26
2024-02-05T14:34:28.254Z,14.30
2024-02-05T14:37:37.942Z,14.35
2024-02-05T14:40:50.494Z,14.29
2024-02-05T14:43:58.317Z,14.30
2024-02-05T14:47:24.439Z,14.32
2024-02-05T14:50:38.047Z,14.19
2024-02-05T14:53:42.381Z,14.20
2024-02-05T14:56:50.674Z,14.23
2024-02-05T15:00:01.432Z,14.07
2024-02-05T15:03:29.371Z,14.15
2024-02-05T15:06:52.750Z,13.88
2024-02-05T15:10:09.760Z,13.99
2024-02-05T15:13:21.797Z,13.88
2024-02-05T15:16:40.472Z,14.07
2024-02-05T15:20:06.445Z,13.90
2024-02-05T15:23:26.296Z,13.97
2024-02-05T15:26:48.023Z,13.88
2024-02-05T15:29:55.149Z,13.76
2024-02-05T15:33:15.457Z,13.73
2024-02-05T15:36:22.620Z,13.75
2024-02-05T15:39:34.420Z,13.63
2024-02-05T15:42:42.010Z,13.78
2024-02-05T15:45:59.230Z,13.64
2024-02-05T15:49:18.784Z,13.64
2024-02-05T15:52:23.768Z,13.68
2024-02-05T15:55:40.903Z,13.65
2024-02-05T15:59:12.254Z,13.55
2024-02-05T16:02:33.545Z,13.55
2024-02-05T16:06:07.395Z,13.62
2024-02-05T16:09:23.262Z,13.53
2024-02-05T16:12:37.456Z,13.49
2024-02-05T16:15:59.784Z,13.46
2024-02-05T16:19:05.367Z,13.49
2024-02-05T16:22:24.201Z,13.39
2024-02-05T16:25:53.092Z,13.47
2024-02-05T16:29:03.373Z,13.45
2024-02-05T16:32:26.200Z,13.36
2024-02-05T16:35:45.487Z,13.41
2024-02-05T16:38:53.135Z,13.38
2024-02-05T16:41:59.383Z,13.18
2024-02-05T16:45:17.194Z,13.21
2024-02-05T16:48:36.765Z,13.34
2024-02-05T16:51:48.102Z,13.30
2024-02-05T16:55:06.930Z,13.20
2024-02-05T16:58:38.124Z,13.28
2024-02-05T17:01:59.510Z,13.28
2024-02-05T17:05:22.471Z,13.18
2024-02-05T17:08:50.968Z,13.16
2024-02-05T17:12:11.693Z,13.23
2024-02-05T17:15:29.393Z,13.06
2024-02-05T17:18:52.441Z,13.24
2024-02-05T17:22:07.397Z,13.11
2024-02-05T17:25:28.242Z,13.05
2024-02-05T17:28:49.484Z,12.96
2024-02-05T17:32:03.340Z,13.00
2024-02-05T17:35:09.123Z,13.02
2024-02-05T17:38:26.470Z,13.05
2024-02-05T17:41:34.303Z,12.90
2024-02-05T17:44:49.993Z,12.96
2024-02-05T17:48:08.978Z,13.00
2024-02-05T17:51:25.649Z,12.96
2024-02-05T17:54:41.464Z,12.98
2024-02-05T17:57:46.794Z,12.94
2024-02-05T18:01:13.447Z,12.86
2024-02-05T18:04:31.811Z,12.84
2024-02-05T18:07:48.948Z,12.76
2024-02-05T18:11:02.297Z,12.92
2024-02-05T18:14:12.650Z,12.86
2024-02-05T18:17:20.921Z,12.85
2024-02-05T18:20:38.312Z,12.85
2024-02-05T18:23:56.811Z,12.82
2024-02-05T18:27:04.576Z,12.74
2024-02-05T18:30:21.972Z,12.83
2024-02-05T18:33:30.385Z,12.77
2024-02-05T18:36:54.601Z,12.87
2024-02-05T18:39:57.776Z,12.99
2024-02-05T18:43:24.950Z,13.03
2024-02-05T18:47:00.364Z,12.97
2024-02-05T18:50:31.210Z,12.93
2024-02-05T18:54:05.014Z,12.96
2024-02-05T18:57:27.483Z,12.94
2024-02-05T19:00:44.494Z,12.92
2024-02-05T19:04:08.180Z,13.02
2024-02-05T19:07:37.112Z,13.04
2024-02-05T19:10:51.891Z,13.05
2024-02-05T19:14:02.796Z,13.10
2024-02-05T19:17:28.849Z,13.11
2024-02-05T19:20:36.863Z,12.97
2024-02-05T19:23:51.520Z,12.94
2024-02-05T19:27:18.937Z,12.96
2024-02-05T19:30:25.716Z,12.95
2024-02-05T19:33:38.207Z,12.83
2024-02-05T19:36:54.556Z,12.72
2024-02-05T19:40:15.859Z,12.62
2024-02-05T19:43:35.669Z,12.85
2024-02-05T19:47:00.435Z,12.81
2024-02-05T19:50:20.265Z,12.76
2024-02-05T19:53:41.246Z,12.71
2024-02-05T19:56:53.664Z,12.82
2024-02-05T20:00:22.946Z,12.72
2024-02-05T20:03:54.957Z,12.55
2024-02-05T20:07:08.274Z,12.41
2024-02-05T20:10:20.923Z,12.62
2024-02-05T20:13:47.707Z,12.63
2024-02-05T20:17:03.480Z,12.70
2024-02-05T20:20:13.646Z,12.67
2024-02-05T20:23:17.401Z,12.63
2024-02-05T20:26:23.543Z,12.67
2024-02-05T20:29:43.260Z,12.63
2024-02-05T20:33:02.743Z,12.61
2024-02-05T20:36:15.680Z,12.58
2024-02-05T20:39:39.253Z,12.67
2024-02-05T20:43:06.724Z,12.57
2024-02-05T20:46:28.818Z,12.63
2024-02-05T20:49:52.207Z,12.35
2024-02-05T20:53:09.638Z,12.28
2024-02-05T20:56:35.872Z,12.13
2024-02-05T20:59:53.287Z,11.94
2024-02-05T21:03:15.572Z,12.20
2024-02-05T21:06:28.431Z,12.53
2024-02-05T21:09:41.693Z,12.83
2024-02-05T21:13:03.193Z,12.71
2024-02-05T21:16:25.678Z,12.63
2024-02-05T21:19:51.894Z,12.68
2024-02-05T21:23:09.994Z,12.74
2024-02-05T21:26:21.334Z,12.75
2024-02-05T21:29:32.843Z,12.62
2024-02-05T21:32:56.714Z,12.51
2024-02-05T21:36:08.374Z,12.49
2024-02-05T21:39:15.275Z,12.65
2024-02-05T21:42:22.572Z,12.38
2024-02-05T21:45:41.710Z,12.26
2024-02-05T21:49:09.812Z,12.53
2024-02-05T21:52:27.698Z,12.56
2024-02-05T21:55:52.277Z,12.71
2024-02-05T21:59:20.727Z,12.76
2024-02-05T22:02:38.298Z,12.70
2024-02-05T22:06:02.680Z,12.72
2024-02-05T22:09:28.139Z,12.65
2024-02-05T22:12:58.372Z,12.59
2024-02-05T22:16:12.720Z,12.74
2024-02-05T22:19:20.993Z,12.69
2024-02-05T22:22:40.457Z,12.63
2024-02-05T22:26:10.280Z,12.66
2024-02-05T22:29:44.385Z,12.61
2024-02-05T22:33:05.549Z,12.67
2024-02-05T22:36:18.595Z,12.84
2024-02-05T22:39:40.427Z,13.01
2024-02-05T22:42:48.809Z,12.97
2024-02-05T22:46:11.237Z,12.88
2024-02-05T22:49:33.624Z,13.10
2024-02-05T22:52:55.179Z,13.04
2024-02-05T22:56:07.386Z,12.98
2024-02-05T22:59:31.424Z,12.93
2024-02-05T23:02:58.624Z,13.02
2024-02-05T23:06:25.588Z,13.04
2024-02-05T23:09:52.591Z,13.02
2024-02-05T23:13:07.652Z,13.05
2024-02-05T23:16:35.040Z,13.13
2024-02-05T23:19:56.194Z,13.31
2024-02-05T23:23:02.457Z,13.27
2024-02-05T23:26:31.006Z,13.27
2024-02-05T23:30:15.458Z,13.24
2024-02-05T23:33:41.233Z,12.96
2024-02-05T23:37:11.975Z,12.93
2024-02-05T23:40:39.571Z,12.88
2024-02-05T23:43:59.490Z,12.82
2024-02-05T23:47:37.580Z,13.05
2024-02-05T23:55:34.241Z,12.64
2024-02-05T23:58:39.189Z,12.40
